createdAt,value
2023-05-12T00:01:30.234Z,88.30
2023-05-12T00:03:58.996Z,88.30
2023-05-12T00:06:27.709Z,88.30
2023-05-12T00:08:56.213Z,88.40
2023-05-12T00:11:24.750Z,88.40
2023-05-12T00:13:55.838Z,88.40
2023-05-12T00:16:24.462Z,88.40
2023-05-12T00:18:53.336Z,88.40
2023-05-12T00:21:22.024Z,88.40
2023-05-12T00:23:50.023Z,88.50
2023-05-12T00:26:18.703Z,88.50
2023-05-12T00:28:48.170Z,88.60
2023-05-12T00:31:18.133Z,88.40
2023-05-12T00:33:46.703Z,88.40
2023-05-12T00:36:14.762Z,88.40
2023-05-12T00:38:43.383Z,89.30
2023-05-12T00:41:11.413Z,88.40
2023-05-12T00:43:39.979Z,88.50
2023-05-12T00:46:08.907Z,88.50
2023-05-12T00:48:38.713Z,88.50
2023-05-12T00:51:07.793Z,88.60
2023-05-12T00:53:48.441Z,88.60
2023-05-12T00:56:19.809Z,88.50
2023-05-12T00:58:48.515Z,88.40
2023-05-12T01:01:16.727Z,88.40
2023-05-12T01:03:47.551Z,88.50
2023-05-12T01:06:20.989Z,88.60
2023-05-12T01:08:49.069Z,88.50
2023-05-12T01:11:17.431Z,88.50
2023-05-12T01:13:45.569Z,88.50
2023-05-12T01:16:16.561Z,88.50
2023-05-12T01:18:50.012Z,88.60
2023-05-12T01:21:19.774Z,88.50
2023-05-12T01:24:00.139Z,88.40
2023-05-12T01:26:32.370Z,88.50
2023-05-12T01:29:01.885Z,88.40
2023-05-12T01:31:31.610Z,88.40
2023-05-12T01:34:00.248Z,89.30
2023-05-12T01:36:28.800Z,88.40
2023-05-12T01:38:56.833Z,88.30
2023-05-12T01:41:24.951Z,88.30
2023-05-12T01:43:54.936Z,88.30
2023-05-12T01:46:23.064Z,88.40
2023-05-12T01:48:51.646Z,88.30
2023-05-12T01:51:19.760Z,88.40
2023-05-12T01:53:48.329Z,88.40
2023-05-12T01:56:16.429Z,88.40
2023-05-12T01:58:45.022Z,88.40
2023-05-12T02:01:15.019Z,88.40
2023-05-12T02:03:44.207Z,89.20
2023-05-12T02:06:12.864Z,88.30
2023-05-12T02:08:40.934Z,88.40
2023-05-12T02:11:10.002Z,88.40
2023-05-12T02:13:38.533Z,88.50
2023-05-12T02:16:07.774Z,88.50
2023-05-12T02:18:37.831Z,88.50
2023-05-12T02:21:06.208Z,88.40
2023-05-12T02:23:34.748Z,88.40
2023-05-12T02:26:02.872Z,88.50
2023-05-12T02:28:31.458Z,88.60
2023-05-12T02:30:59.496Z,88.60
2023-05-12T02:33:28.372Z,88.70
2023-05-12T02:35:58.351Z,88.80
2023-05-12T02:38:26.451Z,88.90
2023-05-12T02:40:55.111Z,88.70
2023-05-12T02:43:23.727Z,88.80
2023-05-12T02:45:52.004Z,88.70
2023-05-12T02:48:20.698Z,88.80
2023-05-12T02:50:48.763Z,88.80
2023-05-12T02:53:18.691Z,88.90
2023-05-12T02:55:46.806Z,88.90
2023-05-12T02:58:15.394Z,88.80
2023-05-12T03:00:43.464Z,88.90
2023-05-12T03:03:12.092Z,88.90
2023-05-12T03:05:40.240Z,89.00
2023-05-12T03:08:08.962Z,88.90
2023-05-12T03:10:38.497Z,88.90
2023-05-12T03:13:07.058Z,88.90
2023-05-12T03:15:35.571Z,88.90
2023-05-12T03:18:04.331Z,89.00
2023-05-12T03:20:32.535Z,89.10
2023-05-12T03:23:00.716Z,89.20
2023-05-12T03:25:29.385Z,89.10
2023-05-12T03:27:59.299Z,89.00
2023-05-12T03:30:27.859Z,89.10
2023-05-12T03:32:56.207Z,89.10
2023-05-12T03:35:25.015Z,89.10
2023-05-12T03:37:53.260Z,89.20
2023-05-12T03:40:21.630Z,89.20
2023-05-12T03:42:50.481Z,89.30
2023-05-12T03:45:20.530Z,89.30
2023-05-12T03:47:49.285Z,89.40
2023-05-12T03:50:18.266Z,89.30
2023-05-12T03:52:46.474Z,89.30
2023-05-12T03:55:15.126Z,89.30
2023-05-12T03:57:43.214Z,89.30
2023-05-12T04:00:13.347Z,89.30
2023-05-12T04:02:42.866Z,89.30
2023-05-12T04:05:11.976Z,89.20
2023-05-12T04:07:40.568Z,89.30
2023-05-12T04:10:09.838Z,89.10
2023-05-12T04:12:38.410Z,88.90
2023-05-12T04:15:08.022Z,88.80
2023-05-12T04:17:36.804Z,88.90
2023-05-12T04:20:07.582Z,88.60
2023-05-12T04:22:36.180Z,88.40
2023-05-12T04:25:04.746Z,88.60
2023-05-12T04:27:33.269Z,88.80
2023-05-12T04:30:01.664Z,89.00
2023-05-12T04:32:30.283Z,89.10
2023-05-12T04:34:58.932Z,89.30
2023-05-12T04:37:28.842Z,89.30
2023-05-12T04:39:56.936Z,89.50
2023-05-12T04:42:25.079Z,89.50
2023-05-12T04:44:53.660Z,89.60
2023-05-12T04:47:21.793Z,89.70
2023-05-12T04:49:49.984Z,89.70
2023-05-12T04:52:18.565Z,89.80
2023-05-12T04:54:48.498Z,89.70
2023-05-12T04:57:16.572Z,89.80
2023-05-12T04:59:45.171Z,89.80
2023-05-12T05:02:13.754Z,89.70
2023-05-12T05:04:42.419Z,89.60
2023-05-12T05:07:10.581Z,89.50
2023-05-12T05:09:39.241Z,89.50
2023-05-12T05:12:10.096Z,89.50
2023-05-12T05:14:39.060Z,89.50
2023-05-12T05:17:08.010Z,89.50
2023-05-12T05:19:47.718Z,89.50
2023-05-12T05:22:21.012Z,89.50
2023-05-12T05:24:49.130Z,89.40
2023-05-12T05:27:19.118Z,89.40
2023-05-12T05:29:47.219Z,89.40
2023-05-12T05:32:15.849Z,89.50
2023-05-12T05:34:44.482Z,89.50
2023-05-12T05:37:12.959Z,89.50
2023-05-12T05:39:41.578Z,89.40
2023-05-12T05:42:09.697Z,89.50
2023-05-12T05:44:39.632Z,89.40
2023-05-12T05:47:07.860Z,89.40
2023-05-12T05:49:36.470Z,89.40
2023-05-12T05:52:04.837Z,89.40
2023-05-12T05:54:33.390Z,89.50
2023-05-12T05:57:03.540Z,89.50
2023-05-12T05:59:32.298Z,89.50
2023-05-12T06:02:01.898Z,89.50
2023-05-12T06:04:30.255Z,89.60
2023-05-12T06:06:58.580Z,89.70
2023-05-12T06:09:26.739Z,89.70
2023-05-12T06:11:54.840Z,89.80
2023-05-12T06:14:23.348Z,89.90
2023-05-12T06:16:52.344Z,89.80
2023-05-12T06:19:22.033Z,89.80
2023-05-12T06:21:50.598Z,89.90
2023-05-12T06:24:19.139Z,89.90
2023-05-12T06:26:47.715Z,89.80
2023-05-12T06:29:15.875Z,89.90
2023-05-12T06:31:44.427Z,89.90
2023-05-12T06:34:12.550Z,89.80
2023-05-12T06:36:42.097Z,89.80
2023-05-12T06:39:10.172Z,89.80
2023-05-12T06:41:38.308Z,89.80
2023-05-12T06:44:06.631Z,89.80
2023-05-12T06:46:35.284Z,89.90
2023-05-12T06:49:03.440Z,89.80
2023-05-12T06:51:32.030Z,89.80
2023-05-12T06:54:02.108Z,89.80
2023-05-12T06:56:30.328Z,89.70
2023-05-12T06:59:01.579Z,89.70
2023-05-12T07:01:30.418Z,89.60
2023-05-12T07:04:00.060Z,89.50
2023-05-12T07:06:29.145Z,89.60
2023-05-12T07:08:57.857Z,89.60
2023-05-12T07:11:27.935Z,89.60
2023-05-12T07:13:56.543Z,89.60
2023-05-12T07:16:25.134Z,89.70
2023-05-12T07:18:53.765Z,89.80
2023-05-12T07:21:22.417Z,89.70
2023-05-12T07:23:50.482Z,89.60
2023-05-12T07:26:19.199Z,89.50
2023-05-12T07:28:48.657Z,89.50
2023-05-12T07:31:17.513Z,89.50
2023-05-12T07:33:46.919Z,89.40
2023-05-12T07:36:15.041Z,89.40
2023-05-12T07:38:43.685Z,89.40
2023-05-12T07:41:12.284Z,89.40
2023-05-12T07:43:40.391Z,89.40
2023-05-12T07:46:10.393Z,89.30
2023-05-12T07:48:40.349Z,89.20
2023-05-12T07:51:09.557Z,89.20
2023-05-12T07:53:38.116Z,89.40
2023-05-12T07:56:08.602Z,89.30
2023-05-12T07:58:36.834Z,89.20
2023-05-12T08:01:06.672Z,89.10
2023-05-12T08:03:37.810Z,89.00
2023-05-12T08:06:07.236Z,89.00
2023-05-12T08:08:36.593Z,88.90
2023-05-12T08:11:05.228Z,88.80
2023-05-12T08:13:33.783Z,88.70
2023-05-12T08:16:02.351Z,88.50
2023-05-12T08:18:30.814Z,88.50
2023-05-12T08:21:00.279Z,88.50
2023-05-12T08:23:28.816Z,88.50
2023-05-12T08:25:56.896Z,88.50
2023-05-12T08:28:25.431Z,88.60
2023-05-12T08:30:53.534Z,88.80
2023-05-12T08:33:22.342Z,88.90
2023-05-12T08:35:50.777Z,88.90
2023-05-12T08:38:21.008Z,88.90
2023-05-12T08:40:58.543Z,88.80
2023-05-12T08:43:31.368Z,88.50
2023-05-12T08:46:00.733Z,88.60
2023-05-12T08:48:30.385Z,88.50
2023-05-12T08:50:59.449Z,88.30
2023-05-12T08:53:30.690Z,88.30
2023-05-12T08:58:50.698Z,88.10
2023-05-12T09:01:19.227Z,87.50
2023-05-12T09:03:48.326Z,88.10
2023-05-12T09:06:17.207Z,88.10
2023-05-12T09:08:47.106Z,88.10
2023-05-12T09:11:16.086Z,87.90
2023-05-12T09:13:53.484Z,87.80
2023-05-12T09:16:26.320Z,87.60
2023-05-12T09:18:56.680Z,87.90
2023-05-12T09:21:26.894Z,88.10
2023-05-12T09:23:57.991Z,87.90
2023-05-12T09:26:27.919Z,87.70
2023-05-12T09:28:57.724Z,87.60
2023-05-12T09:31:27.725Z,87.30
2023-05-12T09:33:56.693Z,86.90
2023-05-12T09:36:27.031Z,86.80
2023-05-12T09:39:05.111Z,86.80
2023-05-12T09:41:36.581Z,86.70
2023-05-12T09:44:05.680Z,86.90
2023-05-12T09:46:34.306Z,87.10
2023-05-12T09:49:04.121Z,87.30
2023-05-12T09:51:32.334Z,87.50
2023-05-12T09:54:02.377Z,87.60
2023-05-12T09:56:32.396Z,87.50
2023-05-12T09:59:02.827Z,87.40
2023-05-12T10:01:31.994Z,87.30
2023-05-12T10:04:00.631Z,87.40
2023-05-12T10:06:31.707Z,87.20
2023-05-12T10:09:10.138Z,87.30
2023-05-12T10:11:39.050Z,87.30
2023-05-12T10:14:09.972Z,87.10
2023-05-12T10:16:38.668Z,87.00
2023-05-12T10:19:07.856Z,86.90
2023-05-12T10:21:37.765Z,87.30
2023-05-12T10:24:07.889Z,87.30
2023-05-12T10:26:39.828Z,87.20
2023-05-12T10:29:08.789Z,87.20
2023-05-12T10:31:37.581Z,87.30
2023-05-12T10:34:06.803Z,87.30
2023-05-12T10:36:45.446Z,87.10
2023-05-12T10:39:17.069Z,86.70
2023-05-12T10:41:45.329Z,86.60
2023-05-12T10:44:14.077Z,86.30
2023-05-12T10:46:43.564Z,85.90
2023-05-12T10:49:13.354Z,85.80
2023-05-12T10:51:50.485Z,86.60
2023-05-12T10:54:26.798Z,85.30
2023-05-12T10:56:59.693Z,85.20
2023-05-12T10:59:29.236Z,85.30
2023-05-12T11:02:03.995Z,85.20
2023-05-12T11:04:43.397Z,85.20
2023-05-12T11:07:14.280Z,85.10
2023-05-12T11:12:18.446Z,85.10
2023-05-12T11:14:48.077Z,85.10
2023-05-12T11:17:16.811Z,85.10
2023-05-12T11:19:48.249Z,85.10
2023-05-12T11:22:19.850Z,85.20
2023-05-12T11:24:50.636Z,85.40
2023-05-12T11:27:21.649Z,85.60
2023-05-12T11:29:58.552Z,85.80
2023-05-12T11:32:26.900Z,85.80
2023-05-12T11:34:55.524Z,86.00
2023-05-12T11:37:24.377Z,86.00
2023-05-12T11:39:53.958Z,86.20
2023-05-12T11:42:25.013Z,86.30
2023-05-12T11:44:55.522Z,86.30
2023-05-12T11:47:24.207Z,86.40
2023-05-12T11:49:53.482Z,86.50
2023-05-12T11:52:24.010Z,86.50
2023-05-12T11:54:54.832Z,86.50
2023-05-12T11:57:27.516Z,86.20
2023-05-12T12:00:00.833Z,86.00
2023-05-12T12:02:29.704Z,86.20
2023-05-12T12:04:58.694Z,86.20
2023-05-12T12:07:31.617Z,86.00
2023-05-12T12:10:12.955Z,85.80
2023-05-12T12:12:41.745Z,85.60
2023-05-12T12:15:11.172Z,85.50
2023-05-12T12:17:40.452Z,85.30
2023-05-12T12:20:10.222Z,85.20
2023-05-12T12:22:38.779Z,85.30
2023-05-12T12:25:09.549Z,85.30
2023-05-12T12:27:38.389Z,85.50
2023-05-12T12:30:08.044Z,85.60
2023-05-12T12:32:36.144Z,85.80
2023-05-12T12:35:07.015Z,85.90
2023-05-12T12:37:35.698Z,86.10
2023-05-12T12:40:08.577Z,86.50
2023-05-12T12:42:40.205Z,86.50
2023-05-12T12:45:10.456Z,86.90
2023-05-12T12:47:39.148Z,87.10
2023-05-12T12:50:10.064Z,87.30
2023-05-12T12:52:39.288Z,87.60
2023-05-12T12:55:09.175Z,87.50
2023-05-12T12:57:39.286Z,87.50
2023-05-12T13:00:08.689Z,87.50
2023-05-12T13:02:37.588Z,87.40
2023-05-12T13:05:07.599Z,87.30
2023-05-12T13:07:35.680Z,87.20
2023-05-12T13:10:04.415Z,87.10
2023-05-12T13:12:33.079Z,87.00
2023-05-12T13:15:03.079Z,86.70
2023-05-12T13:17:31.727Z,86.50
2023-05-12T13:20:00.129Z,86.30
2023-05-12T13:22:29.476Z,86.30
2023-05-12T13:25:00.307Z,86.10
2023-05-12T13:27:28.917Z,86.10
2023-05-12T13:29:57.475Z,86.30
2023-05-12T13:32:26.928Z,86.40
2023-05-12T13:34:55.474Z,86.30
2023-05-12T13:37:23.731Z,86.30
2023-05-12T13:39:52.393Z,86.30
2023-05-12T13:42:21.755Z,86.30
2023-05-12T13:44:50.480Z,86.30
2023-05-12T13:47:19.066Z,86.30
2023-05-12T13:49:49.027Z,86.30
2023-05-12T13:52:17.572Z,86.20
2023-05-12T13:54:46.118Z,86.10
2023-05-12T13:57:14.754Z,85.90
2023-05-12T13:59:42.859Z,85.90
2023-05-12T14:02:12.022Z,85.90
2023-05-12T14:04:40.123Z,86.00
2023-05-12T14:07:10.090Z,86.20
2023-05-12T14:09:38.151Z,86.20
2023-05-12T14:12:07.162Z,86.40
2023-05-12T14:14:35.237Z,86.80
2023-05-12T14:17:03.789Z,86.80
2023-05-12T14:19:31.876Z,86.60
2023-05-12T14:22:00.724Z,86.30
2023-05-12T14:24:30.330Z,86.30
2023-05-12T14:26:58.922Z,86.30
2023-05-12T14:29:27.099Z,87.10
2023-05-12T14:31:55.757Z,86.00
2023-05-12T14:34:24.269Z,86.00
2023-05-12T14:36:53.039Z,86.00
2023-05-12T14:39:21.602Z,86.10
2023-05-12T14:41:53.125Z,86.10
2023-05-12T14:44:21.699Z,85.90
2023-05-12T14:46:50.291Z,85.80
2023-05-12T14:49:21.682Z,85.80
2023-05-12T14:51:50.201Z,85.80
2023-05-12T14:54:25.805Z,85.80
2023-05-12T14:56:56.588Z,85.80
2023-05-12T14:59:24.829Z,85.80
2023-05-12T15:01:53.017Z,85.80
2023-05-12T15:04:21.780Z,85.80
2023-05-12T15:06:50.289Z,85.90
2023-05-12T15:09:18.892Z,86.00
2023-05-12T15:11:47.044Z,86.00
2023-05-12T15:14:16.964Z,85.90
2023-05-12T15:16:45.297Z,85.80
2023-05-12T15:19:14.176Z,85.70
2023-05-12T15:21:42.325Z,85.50
2023-05-12T15:24:10.927Z,85.30
2023-05-12T15:26:40.518Z,85.20
2023-05-12T15:29:09.241Z,85.10
2023-05-12T15:31:38.813Z,85.20
2023-05-12T15:34:07.781Z,85.30
2023-05-12T15:36:36.379Z,85.10
2023-05-12T15:39:05.156Z,84.90
2023-05-12T15:41:33.484Z,85.00
2023-05-12T15:44:02.026Z,85.20
2023-05-12T15:46:31.013Z,85.20
2023-05-12T15:49:00.532Z,85.20
2023-05-12T15:51:30.348Z,85.30
2023-05-12T15:53:58.946Z,85.20
2023-05-12T15:56:27.125Z,85.40
2023-05-12T15:58:56.669Z,85.00
2023-05-12T16:01:25.326Z,84.90
2023-05-12T16:03:54.870Z,84.50
2023-05-12T16:06:24.874Z,84.20
2023-05-12T16:08:53.329Z,84.00
2023-05-12T16:11:21.550Z,84.00
2023-05-12T16:13:49.681Z,83.50
2023-05-12T16:16:17.782Z,83.20
2023-05-12T16:18:46.504Z,83.20
2023-05-12T16:21:14.763Z,83.20
2023-05-12T16:23:44.691Z,83.00
2023-05-12T16:26:12.926Z,82.70
2023-05-12T16:28:41.109Z,82.90
2023-05-12T16:31:09.746Z,83.00
2023-05-12T16:33:37.942Z,83.20
2023-05-12T16:36:06.336Z,83.10
2023-05-12T16:38:34.809Z,83.00
2023-05-12T16:41:05.326Z,82.90
2023-05-12T16:43:33.968Z,83.00
2023-05-12T16:46:03.489Z,82.80
2023-05-12T16:48:34.734Z,82.80
2023-05-12T16:51:03.941Z,82.60
2023-05-12T16:53:32.255Z,82.60
2023-05-12T16:56:01.024Z,82.40
2023-05-12T16:58:32.197Z,82.40
2023-05-12T17:01:00.863Z,82.30
2023-05-12T17:03:29.339Z,81.90
2023-05-12T17:05:58.060Z,81.50
2023-05-12T17:08:26.362Z,81.50
2023-05-12T17:10:54.503Z,81.60
2023-05-12T17:13:23.197Z,81.70
2023-05-12T17:15:53.296Z,81.90
2023-05-12T17:18:21.792Z,82.10
2023-05-12T17:20:49.908Z,82.20
2023-05-12T17:23:18.070Z,82.10
2023-05-12T17:25:46.150Z,82.10
2023-05-12T17:28:14.360Z,82.30
2023-05-12T17:30:43.043Z,82.30
2023-05-12T17:33:15.488Z,82.30
2023-05-12T17:35:47.464Z,82.20
2023-05-12T17:38:22.172Z,82.30
2023-05-12T17:40:50.254Z,82.20
2023-05-12T17:43:18.579Z,82.40
2023-05-12T17:45:46.661Z,82.60
2023-05-12T17:48:16.163Z,82.70
2023-05-12T17:50:44.227Z,82.90
2023-05-12T17:53:12.780Z,83.00
2023-05-12T17:55:42.169Z,83.00
2023-05-12T17:58:10.731Z,82.90
2023-05-12T18:00:38.838Z,83.90
2023-05-12T18:03:07.282Z,83.00
2023-05-12T18:05:37.388Z,82.80
2023-05-12T18:08:06.076Z,83.00
2023-05-12T18:10:35.873Z,83.20
2023-05-12T18:13:04.098Z,83.30
2023-05-12T18:15:32.678Z,83.40
2023-05-12T18:18:01.812Z,83.50
2023-05-12T18:20:29.928Z,83.60
2023-05-12T18:22:59.447Z,83.60
2023-05-12T18:25:27.950Z,83.60
2023-05-12T18:27:56.117Z,83.70
2023-05-12T18:30:24.188Z,83.80
2023-05-12T18:32:52.462Z,83.90
2023-05-12T18:35:20.847Z,83.90
2023-05-12T18:37:49.564Z,84.00
2023-05-12T18:40:19.542Z,84.00
2023-05-12T18:42:47.644Z,84.10
2023-05-12T18:45:15.739Z,84.10
2023-05-12T18:47:43.951Z,84.10
2023-05-12T18:50:12.654Z,84.00
2023-05-12T18:52:40.765Z,84.10
2023-05-12T18:55:10.901Z,84.20
2023-05-12T18:57:40.324Z,84.10
2023-05-12T19:00:10.166Z,84.00
2023-05-12T19:02:38.320Z,83.70
2023-05-12T19:05:08.032Z,84.50
2023-05-12T19:07:36.260Z,83.70
2023-05-12T19:10:05.982Z,83.30
2023-05-12T19:12:34.016Z,83.20
2023-05-12T19:15:03.946Z,83.10
2023-05-12T19:17:32.058Z,83.10
2023-05-12T19:20:00.663Z,83.10
2023-05-12T19:22:29.697Z,83.20
2023-05-12T19:24:58.032Z,83.10
2023-05-12T19:27:27.119Z,83.10
2023-05-12T19:29:56.230Z,82.90
2023-05-12T19:32:25.954Z,82.90
2023-05-12T19:34:54.497Z,82.90
2023-05-12T19:37:22.752Z,82.90
2023-05-12T19:39:51.576Z,82.80
2023-05-12T19:42:19.669Z,82.80
2023-05-12T19:44:48.264Z,82.90
2023-05-12T19:47:16.380Z,82.90
2023-05-12T19:49:46.464Z,82.90
2023-05-12T19:52:14.587Z,82.80
2023-05-12T19:54:42.661Z,82.80
2023-05-12T19:57:10.843Z,82.80
2023-05-12T19:59:38.919Z,82.80
2023-05-12T20:02:07.269Z,82.70
2023-05-12T20:04:35.352Z,82.50
2023-05-12T20:07:05.280Z,82.60
2023-05-12T20:09:33.666Z,82.50
2023-05-12T20:12:02.317Z,82.70
2023-05-12T20:14:31.639Z,82.50
2023-05-12T20:17:05.609Z,82.70
2023-05-12T20:19:35.100Z,82.70
2023-05-12T20:22:04.980Z,82.70
2023-05-12T20:24:33.356Z,82.60
2023-05-12T20:27:02.187Z,82.60
2023-05-12T20:29:30.562Z,82.60
2023-05-12T20:31:58.679Z,82.60
2023-05-12T20:34:30.635Z,82.70
2023-05-12T20:36:58.710Z,82.60
2023-05-12T20:39:28.974Z,82.60
2023-05-12T20:41:57.073Z,82.40
2023-05-12T20:44:26.457Z,82.00
2023-05-12T20:46:55.128Z,82.40
2023-05-12T20:49:23.644Z,82.50
2023-05-12T20:51:51.721Z,82.40
2023-05-12T20:54:20.300Z,82.30
2023-05-12T20:56:49.706Z,82.40
2023-05-12T20:59:17.753Z,82.50
2023-05-12T21:01:45.908Z,82.40
2023-05-12T21:04:14.569Z,82.30
2023-05-12T21:06:42.656Z,82.40
2023-05-12T21:09:10.803Z,82.50
2023-05-12T21:11:38.854Z,82.60
2023-05-12T21:14:08.274Z,82.70
2023-05-12T21:16:36.593Z,82.70
2023-05-12T21:19:04.700Z,82.70
2023-05-12T21:21:32.776Z,82.80
2023-05-12T21:24:00.876Z,83.00
2023-05-12T21:26:28.964Z,83.00
2023-05-12T21:28:58.064Z,82.80
2023-05-12T21:31:27.501Z,82.70
2023-05-12T21:33:56.060Z,82.60
2023-05-12T21:36:24.618Z,82.30
2023-05-12T21:38:53.125Z,82.40
2023-05-12T21:41:21.513Z,82.50
2023-05-12T21:43:50.049Z,82.60
2023-05-12T21:46:18.177Z,82.70
2023-05-12T21:48:48.348Z,82.60
2023-05-12T21:51:16.994Z,82.30
2023-05-12T21:53:45.606Z,82.30
2023-05-12T21:56:14.212Z,82.40
2023-05-12T21:58:42.308Z,82.40
2023-05-12T22:01:10.897Z,82.40
2023-05-12T22:03:39.455Z,82.30
2023-05-12T22:06:09.172Z,82.20
2023-05-12T22:08:37.700Z,82.30
2023-05-12T22:11:06.440Z,82.20
2023-05-12T22:13:34.468Z,82.30
2023-05-12T22:16:03.021Z,82.30
2023-05-12T22:18:31.750Z,82.30
2023-05-12T22:21:00.458Z,82.20
2023-05-12T22:23:29.941Z,82.30
2023-05-12T22:25:58.009Z,82.30
2023-05-12T22:28:26.147Z,82.30
2023-05-12T22:30:54.714Z,82.30
2023-05-12T22:33:22.800Z,82.30
2023-05-12T22:35:50.884Z,82.30
2023-05-12T22:38:19.023Z,82.30
2023-05-12T22:40:49.061Z,82.30
2023-05-12T22:43:18.213Z,82.20
2023-05-12T22:45:46.288Z,82.50
2023-05-12T22:48:14.806Z,82.50
2023-05-12T22:50:42.843Z,82.40
2023-05-12T22:53:10.880Z,82.40
2023-05-12T22:55:39.414Z,82.40
2023-05-12T22:58:10.333Z,82.50
2023-05-12T23:00:38.920Z,82.30
2023-05-12T23:03:07.458Z,82.30
2023-05-12T23:05:36.076Z,82.60
2023-05-12T23:08:04.153Z,82.50
2023-05-12T23:10:32.673Z,82.40
2023-05-12T23:13:00.754Z,82.40
2023-05-12T23:15:30.196Z,82.50
2023-05-12T23:17:58.763Z,82.60
2023-05-12T23:20:27.426Z,82.50
2023-05-12T23:22:55.469Z,82.60
2023-05-12T23:25:24.401Z,82.80
2023-05-12T23:27:52.510Z,82.80
2023-05-12T23:30:21.395Z,82.70
2023-05-12T23:32:51.209Z,82.70
2023-05-12T23:35:19.972Z,82.60
2023-05-12T23:37:48.152Z,82.60
2023-05-12T23:40:16.696Z,82.60
2023-05-12T23:42:44.738Z,82.70
2023-05-12T23:45:13.474Z,82.80
2023-05-12T23:47:41.597Z,82.60
2023-05-12T23:50:11.988Z,82.70
2023-05-12T23:52:39.996Z,82.80
2023-05-12T23:55:09.577Z,82.90
2023-05-12T23:57:38.078Z,83.00
